createdAt,value
2024-02-28T00:00:20.726Z,6.20
2024-02-28T00:02:48.864Z,6.20
2024-02-28T00:05:17.209Z,6.10
2024-02-28T00:07:45.808Z,6.10
2024-02-28T00:10:15.567Z,6.10
2024-02-28T00:12:48.480Z,6.10
2024-02-28T00:15:18.280Z,6.10
2024-02-28T00:17:46.804Z,6.00
2024-02-28T00:20:15.396Z,5.90
2024-02-28T00:22:44.091Z,5.80
2024-02-28T00:25:12.588Z,5.70
2024-02-28T00:27:42.217Z,5.70
2024-02-28T00:30:11.299Z,5.60
2024-02-28T00:32:39.477Z,5.50
2024-02-28T00:35:08.406Z,5.50
2024-02-28T00:37:36.590Z,5.40
2024-02-28T00:40:05.331Z,5.40
2024-02-28T00:42:33.490Z,5.40
2024-02-28T00:45:03.957Z,5.40
2024-02-28T00:47:32.482Z,5.40
2024-02-28T00:50:00.747Z,5.40
2024-02-28T00:52:28.935Z,5.40
2024-02-28T00:54:57.046Z,5.40
2024-02-28T00:57:25.508Z,5.40
2024-02-28T00:59:55.836Z,5.40
2024-02-28T01:02:25.658Z,5.40
2024-02-28T01:04:56.189Z,5.50
2024-02-28T01:07:24.326Z,5.40
2024-02-28T01:09:52.432Z,5.50
2024-02-28T01:12:20.621Z,5.50
2024-02-28T01:14:48.781Z,5.50
2024-02-28T01:17:16.830Z,5.50
2024-02-28T01:19:46.350Z,5.50
2024-02-28T01:22:14.486Z,5.50
2024-02-28T01:24:42.756Z,5.50
2024-02-28T01:27:13.130Z,5.50
2024-02-28T01:29:41.213Z,5.50
2024-02-28T01:32:09.513Z,5.50
2024-02-28T01:34:37.685Z,5.60
2024-02-28T01:37:07.271Z,5.60
2024-02-28T01:39:35.412Z,5.60
2024-02-28T01:42:03.661Z,5.60
2024-02-28T01:44:31.997Z,5.60
2024-02-28T01:47:01.078Z,5.70
2024-02-28T01:49:29.379Z,5.70
2024-02-28T01:51:58.726Z,5.70
2024-02-28T01:54:33.836Z,5.70
2024-02-28T01:57:03.341Z,5.70
2024-02-28T01:59:33.853Z,5.70
2024-02-28T02:02:02.199Z,5.70
2024-02-28T02:04:30.893Z,5.70
2024-02-28T02:07:01.087Z,5.70
2024-02-28T02:09:30.999Z,5.70
2024-02-28T02:11:59.127Z,5.70
2024-02-28T02:14:27.238Z,5.70
2024-02-28T02:16:55.358Z,5.70
2024-02-28T02:19:23.680Z,5.70
2024-02-28T02:21:56.024Z,5.70
2024-02-28T02:24:25.758Z,5.70
2024-02-28T02:26:57.961Z,5.70
2024-02-28T02:29:26.162Z,5.70
2024-02-28T02:31:54.343Z,5.70
2024-02-28T02:34:22.517Z,5.70
2024-02-28T02:36:50.892Z,5.70
2024-02-28T02:39:19.218Z,5.60
2024-02-28T02:41:48.894Z,5.60
2024-02-28T02:44:17.035Z,5.70
2024-02-28T02:46:45.255Z,5.70
2024-02-28T02:49:13.384Z,5.60
2024-02-28T02:51:43.598Z,5.70
2024-02-28T02:54:11.972Z,5.70
2024-02-28T02:56:43.116Z,5.70
2024-02-28T02:59:13.226Z,5.70
2024-02-28T03:01:41.366Z,5.60
2024-02-28T03:04:09.735Z,5.70
2024-02-28T03:06:38.257Z,5.60
2024-02-28T03:09:07.872Z,5.60
2024-02-28T03:11:36.517Z,5.70
2024-02-28T03:14:04.995Z,5.70
2024-02-28T03:16:38.933Z,5.70
2024-02-28T03:19:07.413Z,5.70
2024-02-28T03:21:35.591Z,5.70
2024-02-28T03:24:03.978Z,5.70
2024-02-28T03:26:32.084Z,5.70
2024-02-28T03:29:00.451Z,5.70
2024-02-28T03:31:28.642Z,5.70
2024-02-28T03:33:58.356Z,5.70
2024-02-28T03:36:26.851Z,5.80
2024-02-28T03:38:55.007Z,5.80
2024-02-28T03:41:23.149Z,5.80
2024-02-28T03:43:51.250Z,5.80
2024-02-28T03:46:19.956Z,5.80
2024-02-28T03:48:48.110Z,5.80
2024-02-28T03:51:17.623Z,5.80
2024-02-28T03:53:45.779Z,5.80
2024-02-28T03:56:13.957Z,5.80
2024-02-28T03:58:42.712Z,5.80
2024-02-28T04:01:10.914Z,5.80
2024-02-28T04:03:39.172Z,5.80
2024-02-28T04:06:07.415Z,5.80
2024-02-28T04:08:37.048Z,5.80
2024-02-28T04:11:05.709Z,5.80
2024-02-28T04:13:34.036Z,5.80
2024-02-28T04:16:04.355Z,5.70
2024-02-28T04:18:32.563Z,5.80
2024-02-28T04:21:00.710Z,5.70
2024-02-28T04:23:31.387Z,5.70
2024-02-28T04:26:01.119Z,5.70
2024-02-28T04:28:29.411Z,5.70
2024-02-28T04:30:58.211Z,5.70
2024-02-28T04:33:26.581Z,5.70
2024-02-28T04:35:54.737Z,5.70
2024-02-28T04:38:22.892Z,5.70
2024-02-28T04:40:51.063Z,5.70
2024-02-28T04:43:20.741Z,5.70
2024-02-28T04:45:49.090Z,5.70
2024-02-28T04:48:17.348Z,5.60
2024-02-28T04:50:45.580Z,5.70
2024-02-28T04:53:12.628Z,5.70
2024-02-28T04:55:40.798Z,5.70
2024-02-28T04:58:08.933Z,5.70
2024-02-28T05:00:38.503Z,5.60
2024-02-28T05:03:07.068Z,5.70
2024-02-28T05:05:35.175Z,5.60
2024-02-28T05:08:03.312Z,5.60
2024-02-28T05:10:31.585Z,5.60
2024-02-28T05:13:00.514Z,5.60
2024-02-28T05:15:29.675Z,5.60
2024-02-28T05:17:59.136Z,5.60
2024-02-28T05:20:27.150Z,5.60
2024-02-28T05:22:55.260Z,5.60
2024-02-28T05:25:23.654Z,5.50
2024-02-28T05:27:52.047Z,5.50
2024-02-28T05:30:20.816Z,5.50
2024-02-28T05:32:49.021Z,5.50
2024-02-28T05:35:18.712Z,5.50
2024-02-28T05:37:47.788Z,5.50
2024-02-28T05:40:15.862Z,5.50
2024-02-28T05:42:44.235Z,5.40
2024-02-28T05:45:13.790Z,5.40
2024-02-28T05:47:42.043Z,5.40
2024-02-28T05:50:11.569Z,5.40
2024-02-28T05:52:43.509Z,5.40
2024-02-28T05:55:11.944Z,5.40
2024-02-28T05:57:40.290Z,5.40
2024-02-28T06:00:10.966Z,5.50
2024-02-28T06:02:39.336Z,5.50
2024-02-28T06:05:08.476Z,5.50
2024-02-28T06:07:36.608Z,5.40
2024-02-28T06:10:06.884Z,5.40
2024-02-28T06:12:35.047Z,5.40
2024-02-28T06:15:03.752Z,5.40
2024-02-28T06:17:31.892Z,5.40
2024-02-28T06:20:00.101Z,5.40
2024-02-28T06:22:28.485Z,5.40
2024-02-28T06:24:56.509Z,5.40
2024-02-28T06:27:27.806Z,5.40
2024-02-28T06:29:55.993Z,5.40
2024-02-28T06:32:27.258Z,5.40
2024-02-28T06:34:55.404Z,5.30
2024-02-28T06:37:23.649Z,5.40
2024-02-28T06:39:51.845Z,5.40
2024-02-28T06:42:20.004Z,5.30
2024-02-28T06:44:49.812Z,5.30
2024-02-28T06:47:17.844Z,5.30
2024-02-28T06:49:46.024Z,5.30
2024-02-28T06:52:14.450Z,5.30
2024-02-28T06:54:42.502Z,5.40
2024-02-28T06:57:12.573Z,5.40
2024-02-28T06:59:40.662Z,5.40
2024-02-28T07:02:10.213Z,5.40
2024-02-28T07:04:38.778Z,5.40
2024-02-28T07:07:09.906Z,5.40
2024-02-28T07:09:41.665Z,5.40
2024-02-28T07:12:10.077Z,5.40
2024-02-28T07:14:38.835Z,5.40
2024-02-28T07:17:08.138Z,5.40
2024-02-28T07:19:38.193Z,5.40
2024-02-28T07:22:07.760Z,5.40
2024-02-28T07:24:35.956Z,5.40
2024-02-28T07:27:04.260Z,5.30
2024-02-28T07:29:34.363Z,5.40
2024-02-28T07:32:03.576Z,5.40
2024-02-28T07:34:31.951Z,5.40
2024-02-28T07:37:02.083Z,5.40
2024-02-28T07:39:30.870Z,5.50
2024-02-28T07:41:59.462Z,5.50
2024-02-28T07:44:31.831Z,5.50
2024-02-28T07:47:00.525Z,5.60
2024-02-28T07:49:29.150Z,5.60
2024-02-28T07:51:57.848Z,5.60
2024-02-28T07:54:28.352Z,5.70
2024-02-28T07:56:56.504Z,5.70
2024-02-28T07:59:24.614Z,5.70
2024-02-28T08:01:55.595Z,5.70
2024-02-28T08:04:23.844Z,5.80
2024-02-28T08:06:52.004Z,5.90
2024-02-28T08:09:20.830Z,5.90
2024-02-28T08:11:50.372Z,5.90
2024-02-28T08:14:18.707Z,6.00
2024-02-28T08:16:46.942Z,5.90
2024-02-28T08:19:15.071Z,6.00
2024-02-28T08:21:45.633Z,6.00
2024-02-28T08:24:15.073Z,6.00
2024-02-28T08:26:43.352Z,5.80
2024-02-28T08:29:12.880Z,5.80
2024-02-28T08:31:47.894Z,5.80
2024-02-28T08:34:16.109Z,5.80
2024-02-28T08:36:44.340Z,5.80
2024-02-28T08:39:12.520Z,5.80
2024-02-28T08:41:40.836Z,5.90
2024-02-28T08:44:09.003Z,5.90
2024-02-28T08:46:38.511Z,6.00
2024-02-28T08:49:06.741Z,6.00
2024-02-28T08:51:37.729Z,6.00
2024-02-28T08:54:05.985Z,6.10
2024-02-28T08:56:34.339Z,6.00
2024-02-28T08:59:03.866Z,6.00
2024-02-28T09:01:32.171Z,6.00
2024-02-28T09:04:01.927Z,5.90
2024-02-28T09:06:33.010Z,6.00
2024-02-28T09:09:01.454Z,6.00
2024-02-28T09:11:29.650Z,6.00
2024-02-28T09:13:58.242Z,6.00
2024-02-28T09:16:26.419Z,5.90
2024-02-28T09:18:54.558Z,5.90
2024-02-28T09:21:27.169Z,5.90
2024-02-28T09:23:55.343Z,5.90
2024-02-28T09:26:23.627Z,5.90
2024-02-28T09:28:51.705Z,6.00
2024-02-28T09:31:20.714Z,6.00
2024-02-28T09:33:50.517Z,5.90
2024-02-28T09:36:18.699Z,6.00
2024-02-28T09:38:48.226Z,6.00
2024-02-28T09:41:18.031Z,6.00
2024-02-28T09:43:48.721Z,5.90
2024-02-28T09:46:17.324Z,5.90
2024-02-28T09:48:49.630Z,5.90
2024-02-28T09:51:20.758Z,5.90
2024-02-28T09:53:50.502Z,5.90
2024-02-28T09:56:19.711Z,5.90
2024-02-28T09:58:48.680Z,5.90
2024-02-28T10:01:18.693Z,5.90
2024-02-28T10:03:49.981Z,5.90
2024-02-28T10:06:18.227Z,6.00
2024-02-28T10:08:48.500Z,6.00
2024-02-28T10:11:25.384Z,6.00
2024-02-28T10:13:56.518Z,6.10
2024-02-28T10:16:25.962Z,6.10
2024-02-28T10:18:54.811Z,6.20
2024-02-28T10:21:23.806Z,6.00
2024-02-28T10:23:52.304Z,6.00
2024-02-28T10:26:20.620Z,6.10
2024-02-28T10:28:50.112Z,6.10
2024-02-28T10:31:18.357Z,6.20
2024-02-28T10:33:47.063Z,6.30
2024-02-28T10:36:19.516Z,6.30
2024-02-28T10:38:47.826Z,6.40
2024-02-28T10:41:19.053Z,6.50
2024-02-28T10:43:47.452Z,6.50
2024-02-28T10:46:34.905Z,6.40
2024-02-28T10:49:05.601Z,6.50
2024-02-28T10:51:37.638Z,6.40
2024-02-28T10:54:12.651Z,6.50
2024-02-28T10:56:42.139Z,6.50
2024-02-28T10:59:12.430Z,6.60
2024-02-28T11:01:44.957Z,6.60
2024-02-28T11:04:15.657Z,6.60
2024-02-28T11:06:53.019Z,6.60
2024-02-28T11:09:24.739Z,6.60
2024-02-28T11:11:55.181Z,6.60
2024-02-28T11:14:26.020Z,6.60
2024-02-28T11:17:04.471Z,6.60
2024-02-28T11:19:33.964Z,6.70
2024-02-28T11:22:05.337Z,6.60
2024-02-28T11:24:38.285Z,6.70
2024-02-28T11:27:14.542Z,6.80
2024-02-28T11:29:42.808Z,6.80
2024-02-28T11:32:13.643Z,6.80
2024-02-28T11:34:46.340Z,6.80
2024-02-28T11:37:14.566Z,6.80
2024-02-28T11:39:42.747Z,6.80
2024-02-28T11:42:12.403Z,6.90
2024-02-28T11:44:41.273Z,7.00
2024-02-28T11:47:12.569Z,7.10
2024-02-28T11:49:40.737Z,7.30
2024-02-28T11:52:10.682Z,7.30
2024-02-28T11:54:39.061Z,7.00
2024-02-28T11:57:08.544Z,6.70
2024-02-28T11:59:36.707Z,6.70
2024-02-28T12:02:15.733Z,6.60
2024-02-28T12:04:44.695Z,6.60
2024-02-28T12:07:13.464Z,6.70
2024-02-28T12:09:42.791Z,6.60
2024-02-28T12:12:11.505Z,6.60
2024-02-28T12:14:40.289Z,6.50
2024-02-28T12:17:10.175Z,6.50
2024-02-28T12:19:41.011Z,6.50
2024-02-28T12:22:09.596Z,6.50
2024-02-28T12:24:38.573Z,6.60
2024-02-28T12:27:07.222Z,6.60
2024-02-28T12:29:35.383Z,6.70
2024-02-28T12:32:04.560Z,6.70
2024-02-28T12:34:32.805Z,6.60
2024-02-28T12:37:02.348Z,6.60
2024-02-28T12:39:30.534Z,6.50
2024-02-28T12:42:00.825Z,6.60
2024-02-28T12:44:28.999Z,6.70
2024-02-28T12:47:00.522Z,6.80
2024-02-28T12:49:28.742Z,6.80
2024-02-28T12:52:01.186Z,6.80
2024-02-28T12:54:28.388Z,6.90
2024-02-28T12:56:56.543Z,6.90
2024-02-28T12:59:24.673Z,6.80
2024-02-28T13:01:54.547Z,6.70
2024-02-28T13:04:22.883Z,6.60
2024-02-28T13:06:51.419Z,6.60
2024-02-28T13:09:23.728Z,6.70
2024-02-28T13:11:55.175Z,6.70
2024-02-28T13:14:23.343Z,6.80
2024-02-28T13:16:55.010Z,6.80
2024-02-28T13:19:23.218Z,6.80
2024-02-28T13:21:51.411Z,6.70
2024-02-28T13:24:21.327Z,6.40
2024-02-28T13:26:52.339Z,6.30
2024-02-28T13:29:20.472Z,6.20
2024-02-28T13:31:49.897Z,6.20
2024-02-28T13:34:18.124Z,6.20
2024-02-28T13:36:46.365Z,6.40
2024-02-28T13:39:14.622Z,6.40
2024-02-28T13:41:44.879Z,6.50
2024-02-28T13:44:13.072Z,6.30
2024-02-28T13:46:44.600Z,6.20
2024-02-28T13:49:13.424Z,6.30
2024-02-28T13:51:42.852Z,6.30
2024-02-28T13:54:11.209Z,6.40
2024-02-28T13:56:39.304Z,6.50
2024-02-28T13:59:11.589Z,6.70
2024-02-28T14:01:39.991Z,6.70
2024-02-28T14:04:08.531Z,6.60
2024-02-28T14:06:36.827Z,6.70
2024-02-28T14:09:05.984Z,6.70
2024-02-28T14:11:34.167Z,6.70
2024-02-28T14:14:02.466Z,6.60
2024-02-28T14:16:33.378Z,6.50
2024-02-28T14:19:02.354Z,6.50
2024-02-28T14:21:30.554Z,6.40
2024-02-28T14:23:59.973Z,6.30
2024-02-28T14:26:28.281Z,6.20
2024-02-28T14:28:56.376Z,6.20
2024-02-28T14:31:25.174Z,6.10
2024-02-28T14:33:55.840Z,6.10
2024-02-28T14:36:25.201Z,6.20
2024-02-28T14:38:53.707Z,6.10
2024-02-28T14:41:22.600Z,6.10
2024-02-28T14:43:50.869Z,6.20
2024-02-28T14:46:22.682Z,6.20
2024-02-28T14:48:53.088Z,6.20
2024-02-28T14:51:22.914Z,6.30
2024-02-28T14:53:51.415Z,6.30
2024-02-28T14:56:20.883Z,6.40
2024-02-28T14:58:49.003Z,6.40
2024-02-28T15:01:17.264Z,6.50
2024-02-28T15:03:47.178Z,6.50
2024-02-28T15:06:18.155Z,6.50
2024-02-28T15:08:48.089Z,6.40
2024-02-28T15:11:20.290Z,6.40
2024-02-28T15:13:49.128Z,6.40
2024-02-28T15:16:18.193Z,6.40
2024-02-28T15:18:46.957Z,6.40
2024-02-28T15:21:15.095Z,6.40
2024-02-28T15:23:43.152Z,6.40
2024-02-28T15:26:12.657Z,6.30
2024-02-28T15:28:40.761Z,6.20
2024-02-28T15:31:09.014Z,6.10
2024-02-28T15:33:37.385Z,5.90
2024-02-28T15:36:06.196Z,6.00
2024-02-28T15:38:34.946Z,6.00
2024-02-28T15:41:03.163Z,6.10
2024-02-28T15:43:32.976Z,6.20
2024-02-28T15:46:01.152Z,6.10
2024-02-28T15:48:31.054Z,6.20
2024-02-28T15:51:00.527Z,6.20
2024-02-28T15:53:28.718Z,6.20
2024-02-28T15:55:56.865Z,6.20
2024-02-28T15:58:25.232Z,6.20
2024-02-28T16:00:54.866Z,6.20
2024-02-28T16:03:23.006Z,6.20
2024-02-28T16:05:51.398Z,6.10
2024-02-28T16:08:21.014Z,6.10
2024-02-28T16:10:49.304Z,6.10
2024-02-28T16:13:17.817Z,6.10
2024-02-28T16:15:46.073Z,6.10
2024-02-28T16:18:15.784Z,6.10
2024-02-28T16:20:46.975Z,6.10
2024-02-28T16:23:18.170Z,6.00
2024-02-28T16:25:47.809Z,6.00
2024-02-28T16:28:15.952Z,6.00
2024-02-28T16:30:47.822Z,6.00
2024-02-28T16:33:18.409Z,5.90
2024-02-28T16:35:46.684Z,5.80
2024-02-28T16:38:15.902Z,5.80
2024-02-28T16:40:46.221Z,5.80
2024-02-28T16:43:14.360Z,5.70
2024-02-28T16:45:42.544Z,5.70
2024-02-28T16:48:11.452Z,5.70
2024-02-28T16:50:41.069Z,5.70
2024-02-28T16:53:09.501Z,5.60
2024-02-28T16:55:37.792Z,5.60
2024-02-28T16:58:06.525Z,5.60
2024-02-28T17:00:35.327Z,5.60
2024-02-28T17:03:03.800Z,5.60
2024-02-28T17:05:34.380Z,5.60
2024-02-28T17:08:04.559Z,5.50
2024-02-28T17:10:34.334Z,5.50
2024-02-28T17:13:04.999Z,5.50
2024-02-28T17:15:33.173Z,5.50
2024-02-28T17:18:03.978Z,5.60
2024-02-28T17:20:32.239Z,5.50
2024-02-28T17:23:00.501Z,5.60
2024-02-28T17:25:30.006Z,5.50
2024-02-28T17:27:58.202Z,5.50
2024-02-28T17:30:26.471Z,5.50
2024-02-28T17:32:54.718Z,5.50
2024-02-28T17:35:23.054Z,5.50
2024-02-28T17:37:51.291Z,5.50
2024-02-28T17:40:19.581Z,5.60
2024-02-28T17:42:49.087Z,5.60
2024-02-28T17:45:18.253Z,5.60
2024-02-28T17:47:46.762Z,5.50
2024-02-28T17:50:16.495Z,5.50
2024-02-28T17:52:46.885Z,5.50
2024-02-28T17:55:16.708Z,5.50
2024-02-28T17:57:47.165Z,5.50
2024-02-28T18:00:22.901Z,5.50
2024-02-28T18:02:51.694Z,5.50
2024-02-28T18:05:20.147Z,5.50
2024-02-28T18:07:48.240Z,5.50
2024-02-28T18:10:16.829Z,5.50
2024-02-28T18:12:45.069Z,5.50
2024-02-28T18:15:14.148Z,5.40
2024-02-28T18:17:43.614Z,5.40
2024-02-28T18:20:12.485Z,5.40
2024-02-28T18:22:40.757Z,5.40
2024-02-28T18:25:09.422Z,5.50
2024-02-28T18:27:37.996Z,5.50
2024-02-28T18:30:08.989Z,5.50
2024-02-28T18:32:37.104Z,5.50
2024-02-28T18:35:07.228Z,5.50
2024-02-28T18:37:35.368Z,5.60
2024-02-28T18:40:05.886Z,5.50
2024-02-28T18:42:34.255Z,5.50
2024-02-28T18:47:33.944Z,5.50
2024-02-28T18:50:02.099Z,5.50
2024-02-28T18:52:31.622Z,5.50
2024-02-28T18:54:59.817Z,5.40
2024-02-28T18:57:27.959Z,5.40
2024-02-28T19:00:00.382Z,5.40
2024-02-28T19:02:28.553Z,5.40
2024-02-28T19:04:56.722Z,5.40
2024-02-28T19:07:25.080Z,5.40
2024-02-28T19:09:54.714Z,5.40
2024-02-28T19:12:22.820Z,5.40
2024-02-28T19:14:50.920Z,5.40
2024-02-28T19:17:18.949Z,5.30
2024-02-28T19:19:47.356Z,5.40
2024-02-28T19:22:15.589Z,5.40
2024-02-28T19:24:43.781Z,5.40
2024-02-28T19:27:13.237Z,5.40
2024-02-28T19:29:41.385Z,5.40
2024-02-28T19:32:09.543Z,5.40
2024-02-28T19:34:37.905Z,5.40
2024-02-28T19:37:06.271Z,5.40
2024-02-28T19:39:34.618Z,5.30
2024-02-28T19:42:02.799Z,5.30
2024-02-28T19:44:32.456Z,5.30
2024-02-28T19:47:00.512Z,5.30
2024-02-28T19:49:28.599Z,5.30
2024-02-28T19:51:56.832Z,5.30
2024-02-28T19:54:24.986Z,5.30
2024-02-28T19:56:53.282Z,5.40
2024-02-28T19:59:21.347Z,5.40
2024-02-28T20:01:51.003Z,5.40
2024-02-28T20:04:19.205Z,5.40
2024-02-28T20:06:47.454Z,5.40
2024-02-28T20:09:15.784Z,5.30
2024-02-28T20:11:44.020Z,5.30
2024-02-28T20:14:12.208Z,5.20
2024-02-28T20:16:43.383Z,5.10
2024-02-28T20:19:13.071Z,5.00
2024-02-28T20:21:41.312Z,4.80
2024-02-28T20:24:09.676Z,4.60
2024-02-28T20:26:37.922Z,4.50
2024-02-28T20:29:07.755Z,4.30
2024-02-28T20:31:36.005Z,4.10
2024-02-28T20:34:04.312Z,4.00
2024-02-28T20:36:35.334Z,3.80
2024-02-28T20:39:03.612Z,3.70
2024-02-28T20:41:34.698Z,3.60
2024-02-28T20:44:03.274Z,3.50
2024-02-28T20:46:31.962Z,3.30
2024-02-28T20:49:00.486Z,3.30
2024-02-28T20:51:28.754Z,3.20
2024-02-28T20:53:58.748Z,3.20
2024-02-28T20:56:27.723Z,3.20
2024-02-28T20:58:57.136Z,3.10
2024-02-28T21:01:28.264Z,3.10
2024-02-28T21:03:56.917Z,3.20
2024-02-28T21:06:25.164Z,3.30
2024-02-28T21:08:56.746Z,3.30
2024-02-28T21:11:26.367Z,3.30
2024-02-28T21:13:56.470Z,3.40
2024-02-28T21:16:25.863Z,3.40
2024-02-28T21:18:56.080Z,3.50
2024-02-28T21:21:27.215Z,3.50
2024-02-28T21:23:55.422Z,3.50
2024-02-28T21:26:25.357Z,3.50
2024-02-28T21:28:53.601Z,3.40
2024-02-28T21:31:21.997Z,3.40
2024-02-28T21:33:50.207Z,3.40
2024-02-28T21:36:18.547Z,3.30
2024-02-28T21:38:46.908Z,3.30
2024-02-28T21:41:16.330Z,3.20
2024-02-28T21:43:46.037Z,3.10
2024-02-28T21:46:14.160Z,3.00
2024-02-28T21:48:43.404Z,2.90
2024-02-28T21:51:12.209Z,2.90
2024-02-28T21:53:40.318Z,2.80
2024-02-28T21:56:10.355Z,2.80
2024-02-28T21:58:38.373Z,2.70
2024-02-28T22:01:10.326Z,2.70
2024-02-28T22:03:38.597Z,2.60
2024-02-28T22:06:09.878Z,2.60
2024-02-28T22:08:38.857Z,2.60
2024-02-28T22:11:09.726Z,2.60
2024-02-28T22:13:37.848Z,2.70
2024-02-28T22:16:07.730Z,2.60
2024-02-28T22:18:36.046Z,2.60
2024-02-28T22:21:04.533Z,2.60
2024-02-28T22:23:34.515Z,2.60
2024-02-28T22:26:02.857Z,2.50
2024-02-28T22:28:30.965Z,2.50
2024-02-28T22:31:01.748Z,2.40
2024-02-28T22:33:31.288Z,2.30
2024-02-28T22:35:59.407Z,2.30
2024-02-28T22:38:27.396Z,2.20
2024-02-28T22:40:55.858Z,2.20
2024-02-28T22:43:23.858Z,2.30
2024-02-28T22:45:51.954Z,2.30
2024-02-28T22:48:20.088Z,2.40
2024-02-28T22:50:49.561Z,2.50
2024-02-28T22:53:17.650Z,2.50
2024-02-28T22:55:45.972Z,2.50
2024-02-28T22:58:14.190Z,2.30
2024-02-28T23:00:44.094Z,2.20
2024-02-28T23:03:14.867Z,2.20
2024-02-28T23:05:43.153Z,2.20
2024-02-28T23:08:12.737Z,2.10
2024-02-28T23:10:40.882Z,2.00
2024-02-28T23:13:09.060Z,2.00
2024-02-28T23:15:37.200Z,2.00
2024-02-28T23:18:11.826Z,1.90
2024-02-28T23:20:40.700Z,1.90
2024-02-28T23:23:08.835Z,2.00
2024-02-28T23:25:38.358Z,2.00
2024-02-28T23:28:09.665Z,2.00
2024-02-28T23:30:38.015Z,2.10
2024-02-28T23:33:08.161Z,2.20
2024-02-28T23:35:36.533Z,2.30
2024-02-28T23:38:06.364Z,2.40
2024-02-28T23:40:33.697Z,2.40
2024-02-28T23:43:03.357Z,2.40
2024-02-28T23:45:31.538Z,2.50
2024-02-28T23:47:59.704Z,2.50
2024-02-28T23:50:28.834Z,2.60
2024-02-28T23:52:57.004Z,2.80
2024-02-28T23:55:25.195Z,3.00
2024-02-28T23:57:53.273Z,3.00
